createdAt,value
2022-08-25T00:01:21.747Z,54.95
2022-08-25T00:03:52.601Z,54.83
2022-08-25T00:06:20.414Z,54.79
2022-08-25T00:08:49.168Z,54.62
2022-08-25T00:11:22.346Z,55.09
2022-08-25T00:13:54.308Z,55.10
2022-08-25T00:16:23.328Z,55.08
2022-08-25T00:18:57.255Z,55.69
2022-08-25T00:21:25.893Z,54.85
2022-08-25T00:23:54.331Z,55.15
2022-08-25T00:26:23.652Z,55.42
2022-08-25T00:28:53.058Z,55.04
2022-08-25T00:32:02.917Z,55.31
2022-08-25T00:34:40.066Z,55.67
2022-08-25T00:37:09.622Z,55.20
2022-08-25T00:39:40.113Z,55.65
2022-08-25T00:42:11.880Z,55.58
2022-08-25T00:44:45.642Z,55.68
2022-08-25T00:47:13.228Z,55.84
2022-08-25T00:49:59.157Z,56.52
2022-08-25T00:52:36.352Z,56.56
2022-08-25T00:55:14.561Z,56.55
2022-08-25T00:57:48.493Z,56.55
2022-08-25T01:00:30.338Z,56.62
2022-08-25T01:02:58.108Z,56.23
2022-08-25T01:05:30.392Z,56.34
2022-08-25T01:07:59.909Z,56.41
2022-08-25T01:10:37.324Z,56.32
2022-08-25T01:13:32.126Z,56.90
2022-08-25T01:16:00.795Z,56.54
2022-08-25T01:18:47.159Z,56.45
2022-08-25T01:21:15.115Z,56.13
2022-08-25T01:23:47.747Z,55.94
2022-08-25T01:26:31.063Z,56.25
2022-08-25T01:29:21.929Z,55.98
2022-08-25T01:32:09.407Z,55.73
2022-08-25T01:34:43.464Z,55.68
2022-08-25T01:37:14.192Z,56.11
2022-08-25T01:39:45.437Z,55.85
2022-08-25T01:42:13.454Z,55.94
2022-08-25T01:44:47.047Z,56.19
2022-08-25T01:47:18.684Z,56.36
2022-08-25T01:49:51.500Z,56.40
2022-08-25T01:52:29.666Z,56.82
2022-08-25T01:54:57.082Z,56.37
2022-08-25T01:57:25.584Z,56.47
2022-08-25T01:59:55.594Z,56.61
2022-08-25T02:02:23.563Z,56.71
2022-08-25T02:04:53.430Z,56.67
2022-08-25T02:07:23.412Z,56.47
2022-08-25T02:09:54.471Z,56.66
2022-08-25T02:12:21.792Z,56.51
2022-08-25T02:14:49.093Z,56.47
2022-08-25T02:17:17.538Z,56.46
2022-08-25T02:19:45.098Z,56.42
2022-08-25T02:22:32.277Z,56.23
2022-08-25T02:25:15.278Z,56.31
2022-08-25T02:27:56.168Z,56.50
2022-08-25T02:30:31.722Z,56.13
2022-08-25T02:33:03.631Z,55.89
2022-08-25T02:36:25.949Z,56.00
2022-08-25T02:39:22.446Z,56.08
2022-08-25T02:42:32.051Z,56.42
2022-08-25T03:01:06.353Z,55.72
2022-08-25T03:05:37.104Z,55.98
2022-08-25T03:12:10.464Z,56.48
2022-08-25T03:19:29.894Z,55.74
2022-08-25T03:26:49.270Z,55.31
2022-08-25T03:30:56.077Z,55.84
2022-08-25T03:33:51.991Z,55.53
2022-08-25T03:36:32.232Z,55.35
2022-08-25T03:39:00.418Z,55.20
2022-08-25T03:46:54.850Z,55.60
2022-08-25T03:49:35.160Z,55.13
2022-08-25T03:52:18.177Z,55.20
2022-08-25T03:55:03.490Z,55.07
2022-08-25T03:58:16.713Z,54.48
2022-08-25T04:01:14.721Z,53.99
2022-08-25T04:03:53.988Z,53.21
2022-08-25T04:06:46.065Z,53.09
2022-08-25T04:09:35.188Z,52.24
2022-08-25T04:12:19.994Z,52.10
2022-08-25T04:15:11.152Z,51.18
2022-08-25T04:17:51.836Z,50.44
2022-08-25T04:20:23.796Z,50.32
2022-08-25T04:23:40.083Z,50.70
2022-08-25T04:26:25.187Z,50.22
2022-08-25T04:28:54.135Z,49.89
2022-08-25T04:31:24.536Z,49.06
2022-08-25T04:33:56.515Z,48.91
2022-08-25T04:37:22.978Z,48.42
2022-08-25T04:39:24.215Z,48.52
2022-08-25T04:42:26.555Z,48.11
2022-08-25T04:44:54.686Z,48.15
2022-08-25T04:47:28.138Z,47.38
2022-08-25T04:50:00.983Z,47.55
2022-08-25T04:52:28.280Z,47.10
2022-08-25T04:54:58.015Z,47.06
2022-08-25T04:57:34.803Z,46.58
2022-08-25T05:00:06.671Z,46.14
2022-08-25T05:02:36.566Z,46.35
2022-08-25T05:05:04.474Z,45.47
2022-08-25T05:07:32.085Z,44.97
2022-08-25T05:10:03.877Z,44.69
2022-08-25T05:12:37.322Z,44.32
2022-08-25T05:15:29.281Z,43.82
2022-08-25T05:18:22.675Z,43.13
2022-08-25T05:22:18.145Z,40.40
2022-08-25T05:29:54.684Z,34.88
2022-08-25T05:37:16.906Z,30.86
2022-08-25T05:49:51.854Z,27.42
2022-08-25T06:01:52.041Z,25.28
2022-08-25T06:13:46.804Z,23.99
2022-08-25T06:28:30.219Z,22.99
2022-08-25T06:32:16.083Z,22.25
2022-08-25T06:39:30.568Z,20.66
2022-08-25T07:14:24.748Z,23.44
2022-08-25T07:17:49.616Z,23.12
2022-08-25T07:31:58.455Z,24.36
2022-08-25T07:35:37.531Z,25.26
2022-08-25T07:39:25.539Z,25.71
2022-08-25T07:43:44.673Z,25.00
2022-08-25T07:54:49.889Z,22.32
2022-08-25T08:05:47.178Z,19.67
2022-08-25T10:08:57.548Z,16.00
2022-08-25T10:40:21.152Z,19.51
2022-08-25T10:43:38.385Z,19.63
2022-08-25T10:51:39.995Z,19.30
2022-08-25T10:55:43.282Z,21.05
2022-08-25T11:00:16.195Z,20.29
2022-08-25T11:11:47.755Z,17.85
2022-08-25T11:30:43.544Z,16.25
2022-08-25T11:37:43.293Z,16.44
2022-08-25T12:17:58.368Z,17.37
2022-08-25T12:37:14.837Z,17.88
2022-08-25T12:52:13.967Z,16.40
2022-08-25T12:55:13.363Z,17.14
2022-08-25T13:03:00.331Z,17.36
2022-08-25T13:07:44.838Z,17.80
2022-08-25T13:10:42.487Z,18.19
2022-08-25T13:17:25.864Z,18.28
2022-08-25T13:28:03.598Z,19.10
2022-08-25T13:31:34.533Z,18.98
2022-08-25T13:35:49.335Z,19.07
2022-08-25T13:38:50.464Z,19.42
2022-08-25T13:42:50.874Z,20.24
2022-08-25T13:45:16.654Z,19.37
2022-08-25T13:51:01.306Z,18.38
2022-08-25T13:54:25.311Z,18.69
2022-08-25T13:57:31.030Z,18.48
2022-08-25T14:01:47.191Z,18.34
2022-08-25T14:04:39.010Z,18.56
2022-08-25T14:08:16.054Z,18.56
2022-08-25T14:12:04.493Z,18.81
2022-08-25T14:16:20.719Z,19.13
2022-08-25T14:24:37.563Z,20.44
2022-08-25T14:30:28.896Z,22.17
2022-08-25T14:38:44.382Z,23.39
2022-08-25T14:45:03.755Z,23.96
2022-08-25T14:55:31.354Z,24.83
2022-08-25T14:58:13.134Z,24.74
2022-08-25T15:00:58.818Z,24.68
2022-08-25T15:04:22.104Z,24.79
2022-08-25T15:07:48.469Z,25.55
2022-08-25T15:15:53.054Z,24.85
2022-08-25T15:17:33.604Z,25.52
2022-08-25T15:20:53.223Z,25.54
2022-08-25T15:23:22.258Z,24.99
2022-08-25T15:26:42.252Z,25.23
2022-08-25T15:29:15.210Z,25.60
2022-08-25T15:31:43.741Z,25.93
2022-08-25T15:34:14.624Z,25.70
2022-08-25T15:36:44.693Z,26.21
2022-08-25T15:39:28.810Z,26.07
2022-08-25T15:41:57.376Z,26.21
2022-08-25T15:44:53.197Z,27.17
2022-08-25T15:53:46.805Z,26.86
2022-08-25T15:56:26.825Z,26.77
2022-08-25T15:58:58.570Z,27.21
2022-08-25T16:02:04.666Z,27.24
2022-08-25T16:08:34.124Z,28.29
2022-08-25T16:14:32.819Z,28.64
2022-08-25T16:17:08.074Z,29.29
2022-08-25T16:19:46.801Z,29.59
2022-08-25T16:22:16.515Z,29.76
2022-08-25T16:24:52.030Z,30.26
2022-08-25T16:27:51.206Z,29.97
2022-08-25T16:30:27.287Z,30.67
2022-08-25T16:36:44.824Z,31.20
2022-08-25T16:40:30.677Z,31.36
2022-08-25T16:43:22.964Z,31.14
2022-08-25T16:46:20.580Z,32.95
2022-08-25T16:48:49.022Z,31.97
2022-08-25T16:51:29.710Z,33.02
2022-08-25T16:54:30.679Z,33.07
2022-08-25T16:57:27.555Z,33.65
2022-08-25T17:00:01.491Z,32.90
2022-08-25T17:02:33.496Z,33.86
2022-08-25T17:08:30.858Z,34.10
2022-08-25T17:11:24.882Z,35.02
2022-08-25T17:14:59.457Z,34.75
2022-08-25T17:17:15.303Z,34.87
2022-08-25T17:20:10.061Z,35.04
2022-08-25T17:22:49.172Z,34.79
2022-08-25T17:25:27.496Z,34.74
2022-08-25T17:27:57.588Z,35.20
2022-08-25T17:30:34.754Z,35.45
2022-08-25T17:33:08.098Z,36.16
2022-08-25T17:35:43.496Z,36.53
2022-08-25T17:38:17.953Z,36.77
2022-08-25T17:40:48.278Z,36.54
2022-08-25T17:43:19.017Z,36.73
2022-08-25T17:45:46.822Z,36.96
2022-08-25T17:48:27.621Z,36.80
2022-08-25T17:51:15.838Z,37.43
2022-08-25T17:54:01.880Z,37.16
2022-08-25T18:06:49.018Z,37.60
2022-08-25T18:08:51.693Z,37.96
2022-08-25T18:11:24.928Z,37.82
2022-08-25T18:13:54.119Z,38.34
2022-08-25T18:16:29.949Z,38.38
2022-08-25T18:18:58.931Z,38.70
2022-08-25T18:21:30.537Z,39.21
2022-08-25T18:23:59.281Z,38.96
2022-08-25T18:26:27.228Z,39.24
2022-08-25T18:28:57.559Z,39.51
2022-08-25T18:31:25.838Z,39.79
2022-08-25T18:33:53.191Z,39.76
2022-08-25T18:36:23.820Z,40.19
2022-08-25T18:39:10.197Z,39.91
2022-08-25T18:41:40.523Z,40.49
2022-08-25T18:44:08.405Z,40.42
2022-08-25T18:46:38.195Z,40.46
2022-08-25T18:49:09.083Z,40.54
2022-08-25T18:51:37.995Z,40.51
2022-08-25T18:54:06.211Z,40.81
2022-08-25T18:56:34.448Z,40.68
2022-08-25T18:59:04.188Z,41.30
2022-08-25T19:01:31.864Z,41.34
2022-08-25T19:03:59.410Z,41.08
2022-08-25T19:06:30.826Z,42.08
2022-08-25T19:09:03.748Z,41.56
2022-08-25T19:11:31.196Z,41.87
2022-08-25T19:13:59.881Z,41.89
2022-08-25T19:16:38.259Z,42.31
2022-08-25T19:19:19.122Z,41.87
2022-08-25T19:21:48.220Z,42.03
2022-08-25T19:24:19.650Z,41.42
2022-08-25T19:26:49.537Z,42.03
2022-08-25T19:29:23.055Z,42.21
2022-08-25T19:31:51.405Z,42.82
2022-08-25T19:34:28.216Z,42.54
2022-08-25T19:37:01.277Z,42.79
2022-08-25T19:39:32.001Z,42.84
2022-08-25T19:42:01.151Z,42.62
2022-08-25T19:44:34.416Z,43.09
2022-08-25T19:47:09.159Z,43.54
2022-08-25T19:49:40.724Z,43.46
2022-08-25T19:52:11.978Z,43.60
2022-08-25T19:54:47.051Z,43.92
2022-08-25T19:57:27.853Z,43.69
2022-08-25T20:00:01.741Z,43.41
2022-08-25T20:02:43.152Z,44.22
2022-08-25T20:05:11.837Z,43.75
2022-08-25T20:07:40.077Z,44.10
2022-08-25T20:10:13.972Z,44.57
2022-08-25T20:12:43.633Z,44.40
2022-08-25T20:15:13.059Z,44.75
2022-08-25T20:17:46.626Z,44.66
2022-08-25T20:20:21.836Z,45.32
2022-08-25T20:22:49.742Z,45.09
2022-08-25T20:25:24.681Z,46.24
2022-08-25T20:28:29.981Z,46.37
2022-08-25T20:30:58.814Z,46.06
2022-08-25T20:33:27.553Z,46.21
2022-08-25T20:36:18.076Z,46.19
2022-08-25T20:39:14.040Z,47.31
2022-08-25T20:42:36.050Z,47.24
2022-08-25T20:45:11.550Z,46.89
2022-08-25T20:47:42.064Z,46.96
2022-08-25T20:50:14.476Z,47.50
2022-08-25T20:53:20.378Z,47.30
2022-08-25T20:56:37.284Z,48.10
2022-08-25T20:59:27.412Z,47.74
2022-08-25T21:01:55.971Z,47.83
2022-08-25T21:04:29.605Z,47.81
2022-08-25T21:07:05.491Z,48.61
2022-08-25T21:10:06.772Z,48.21
2022-08-25T21:13:13.815Z,49.60
2022-08-25T21:15:57.081Z,48.43
2022-08-25T21:18:31.551Z,48.72
2022-08-25T21:21:14.416Z,48.98
2022-08-25T21:24:03.006Z,48.89
2022-08-25T21:27:21.359Z,49.55
2022-08-25T21:30:11.414Z,49.57
2022-08-25T21:36:51.965Z,49.49
2022-08-25T21:39:29.031Z,49.17
2022-08-25T21:42:06.399Z,49.84
2022-08-25T21:44:36.419Z,49.85
2022-08-25T21:47:13.659Z,50.15
2022-08-25T21:50:00.312Z,50.06
2022-08-25T21:53:28.769Z,49.98
2022-08-25T21:56:00.453Z,50.65
2022-08-25T21:58:41.951Z,50.62
2022-08-25T22:01:22.521Z,51.04
2022-08-25T22:03:59.726Z,50.68
2022-08-25T22:07:09.120Z,50.74
2022-08-25T22:09:46.297Z,50.54
2022-08-25T22:12:20.163Z,51.66
2022-08-25T22:14:48.243Z,51.13
2022-08-25T22:17:26.266Z,50.79
2022-08-25T22:20:09.130Z,51.10
2022-08-25T22:22:39.927Z,51.08
2022-08-25T22:25:07.837Z,51.48
2022-08-25T22:27:35.885Z,51.87
2022-08-25T22:30:07.266Z,52.15
2022-08-25T22:32:35.033Z,51.59
2022-08-25T22:35:03.021Z,51.73
2022-08-25T22:37:31.230Z,52.20
2022-08-25T22:40:02.785Z,51.99
2022-08-25T22:42:30.561Z,51.92
2022-08-25T22:44:58.955Z,51.74
2022-08-25T22:47:26.857Z,51.64
2022-08-25T22:49:55.754Z,51.66
2022-08-25T22:52:32.003Z,51.84
2022-08-25T22:55:17.495Z,52.12
2022-08-25T22:57:54.803Z,51.56
2022-08-25T23:00:22.619Z,51.85
2022-08-25T23:02:53.375Z,51.73
2022-08-25T23:05:23.683Z,51.68
2022-08-25T23:07:51.032Z,51.97
2022-08-25T23:10:21.353Z,52.14
2022-08-25T23:12:53.018Z,51.96
2022-08-25T23:15:21.976Z,52.12
2022-08-25T23:17:51.154Z,52.17
2022-08-25T23:20:45.249Z,52.26
2022-08-25T23:23:14.181Z,52.37
2022-08-25T23:25:41.533Z,52.38
2022-08-25T23:28:09.566Z,52.38
2022-08-25T23:30:39.267Z,52.33
2022-08-25T23:33:15.239Z,52.56
2022-08-25T23:35:46.019Z,52.80
2022-08-25T23:38:13.942Z,52.76
2022-08-25T23:40:43.933Z,53.18
2022-08-25T23:43:12.486Z,53.68
2022-08-25T23:45:40.385Z,53.49
2022-08-25T23:48:11.226Z,53.87
2022-08-25T23:50:41.781Z,53.75
2022-08-25T23:53:09.849Z,53.95
2022-08-25T23:55:37.920Z,54.17
2022-08-25T23:58:20.049Z,53.83
